Time;durP1;ratioP1;P1;durP2;ratioP2;P2;SDS_P1;SDS_P2;PMS_P1;PMS_P2;Temp;Humidity;BMP_temperature;BMP_pressure;BME280_temperature;BME280_humidity;BME280_pressure;Samples;Min_cycle;Max_cycle;Signal;HPM_P1;HPM_P2
2022/06/07 05:25:11;;;;;;;;;;;;;;;21.02;71.27;97011.06;4243203;27;10359;-70
2022/06/07 05:27:16;;;;;;;;;;;;;;;21.29;70.79;97005.69;4230970;27;5671;-70
2022/06/07 05:29:23;;;;;;;;;;;;;;;21.52;70.03;97010.75;4236809;27;6356;-71
2022/06/07 05:31:26;;;;;;;;;;;;;;;21.68;69.69;97009.75;4218686;28;6981;-70
2022/06/07 05:33:29;;;;;;;;;;;;;;;21.83;69.11;97005.53;4230937;27;5692;-71
2022/06/07 05:35:32;;;;;;;;;;;;;;;21.96;69.15;97021.22;4219554;28;5678;-71
2022/06/07 05:37:35;;;;;;;;;;;;;;;22.04;68.57;97013.50;4228353;28;5695;-71
2022/06/07 05:39:38;;;;;;;;;;;;;;;22.15;68.56;97018.97;4223389;28;5782;-70
2022/06/07 05:41:42;;;;;;;;;;;;;;;22.22;68.36;97025.75;4215217;28;5815;-71
2022/06/07 05:43:45;;;;;;;;;;;;;;;22.27;68.38;97023.06;4214582;28;5697;-71
2022/06/07 05:45:50;;;;;;;;;;;;;;;22.31;68.21;97024.19;4225899;28;5840;-71
2022/06/07 05:47:53;;;;;;;;;;;;;;;22.37;67.83;97025.81;4229447;28;5797;-71
2022/06/07 05:50:01;;;;;;;;;;;;;;;22.41;67.21;97022.56;4224736;28;5715;-71
2022/06/07 05:52:05;;;;;;;;;;;;;;;22.42;67.19;97024.19;4230687;28;5754;-71
2022/06/07 05:54:08;;;;;;;;;;;;;;;22.47;67.18;97022.34;4219626;28;5700;-70
2022/06/07 05:56:15;;;;;;;;;;;;;;;22.50;67.30;97021.81;4215043;28;5086;-71
2022/06/07 05:58:19;;;;;;;;;;;;;;;22.53;67.11;97015.09;4215728;28;5720;-71
2022/06/07 06:00:24;;;;;;;;;;;;;;;22.58;67.06;97007.03;4214539;28;5704;-71
2022/06/07 06:02:27;;;;;;;;;;;;;;;22.59;67.13;97009.47;4214854;28;5751;-71
2022/06/07 06:04:31;;;;;;;;;;;;;;;22.55;66.66;97013.78;4213314;28;5691;-71
2022/06/07 06:06:36;;;;;;;;;;;;;;;22.57;66.89;97014.31;4214950;28;5696;-71
2022/06/07 06:11:06;;;;;;;;;;;;;;;22.62;66.17;97008.91;4214765;28;5723;-71
2022/06/07 06:13:08;;;;;;;;;;;;;;;22.67;65.95;97006.25;4214385;28;5712;-71
2022/06/07 06:15:13;;;;;;;;;;;;;;;22.72;66.06;96999.25;4223731;28;5679;-71
2022/06/07 06:17:16;;;;;;;;;;;;;;;22.76;65.97;97005.72;4231393;28;5699;-72
2022/06/07 06:19:19;;;;;;;;;;;;;;;22.76;65.71;97009.22;4231388;28;5695;-71
2022/06/07 06:21:24;;;;;;;;;;;;;;;22.77;65.97;97005.47;4231177;28;5667;-71
2022/06/07 06:23:27;;;;;;;;;;;;;;;22.82;65.42;97012.75;4230688;28;6965;-71
2022/06/07 06:25:30;;;;;;;;;;;;;;;22.83;65.63;97017.06;4222657;28;5794;-71
2022/06/07 06:27:35;;;;;;;;;;;;;;;22.86;65.03;97016.56;4220244;28;5762;-71
2022/06/07 06:29:38;;;;;;;;;;;;;;;22.88;65.25;97022.53;4219758;28;5667;-71
2022/06/07 06:31:43;;;;;;;;;;;;;;;22.87;65.28;97023.56;4219913;28;5688;-71
2022/06/07 06:33:48;;;;;;;;;;;;;;;22.88;65.12;97027.91;4218503;28;5698;-71
2022/06/07 06:35:53;;;;;;;;;;;;;;;22.88;64.66;97026.03;4220010;28;6361;-72
2022/06/07 06:37:58;;;;;;;;;;;;;;;22.90;64.45;97031.16;4220033;28;6360;-71
2022/06/07 06:40:01;;;;;;;;;;;;;;;22.92;64.50;97029.00;4219875;28;6258;-72
2022/06/07 06:42:04;;;;;;;;;;;;;;;23.05;64.42;97022.28;4219749;28;5660;-72
2022/06/07 06:44:15;;;;;;;;;;;;;;;23.23;64.00;97033.38;4219674;28;5097;-71
2022/06/07 06:46:22;;;;;;;;;;;;;;;23.39;63.47;97038.78;4219775;28;5727;-72
2022/06/07 06:48:27;;;;;;;;;;;;;;;23.51;63.09;97034.72;4219827;28;5053;-72
2022/06/07 06:50:30;;;;;;;;;;;;;;;23.57;63.00;97032.03;4219734;28;5775;-72
2022/06/07 06:52:33;;;;;;;;;;;;;;;23.57;63.20;97030.16;4219565;28;5683;-72
2022/06/07 06:54:37;;;;;;;;;;;;;;;23.56;63.00;97031.22;4219463;28;5659;-72
2022/06/07 06:56:41;;;;;;;;;;;;;;;23.53;63.15;97031.75;4219591;28;5667;-72
2022/06/07 06:58:44;;;;;;;;;;;;;;;23.50;62.72;97035.00;4219783;28;5660;-72
2022/06/07 07:00:48;;;;;;;;;;;;;;;23.44;63.01;97036.06;4219250;28;5783;-71
2022/06/07 07:02:53;;;;;;;;;;;;;;;23.42;62.58;97035.53;4219473;28;5686;-72
2022/06/07 07:04:57;;;;;;;;;;;;;;;23.42;62.47;97040.91;4219123;28;5776;-72
2022/06/07 07:07:01;;;;;;;;;;;;;;;23.41;62.60;97044.69;4219423;28;5756;-72
2022/06/07 07:09:04;;;;;;;;;;;;;;;23.41;62.62;97039.31;4218525;28;5679;-72
2022/06/07 07:11:12;;;;;;;;;;;;;;;23.44;62.54;97041.47;4219428;28;5787;-72
2022/06/07 07:13:15;;;;;;;;;;;;;;;23.50;62.06;97037.69;4219483;28;5762;-72
2022/06/07 07:15:18;;;;;;;;;;;;;;;23.52;61.68;97028.25;4218792;28;5762;-72
2022/06/07 07:17:22;;;;;;;;;;;;;;;23.50;61.96;97040.41;4219206;28;5671;-72
2022/06/07 07:19:25;;;;;;;;;;;;;;;23.49;61.83;97036.06;4218050;28;5679;-72
2022/06/07 07:21:34;;;;;;;;;;;;;;;23.50;62.03;97040.41;4218099;28;5743;-72
2022/06/07 07:23:38;;;;;;;;;;;;;;;23.49;61.48;97039.59;4218846;28;5734;-71
2022/06/07 07:25:41;;;;;;;;;;;;;;;23.52;61.60;97040.94;4219225;28;5655;-72
2022/06/07 07:27:47;;;;;;;;;;;;;;;23.58;61.42;97034.50;4219273;28;5774;-72
2022/06/07 07:29:50;;;;;;;;;;;;;;;23.62;61.56;97030.16;4218771;28;5684;-72
2022/06/07 07:31:53;;;;;;;;;;;;;;;23.64;61.56;97032.59;4217731;28;5667;-72
2022/06/07 07:33:57;;;;;;;;;;;;;;;23.61;61.29;97030.44;4218871;28;5758;-72
2022/06/07 07:36:01;;;;;;;;;;;;;;;23.58;61.22;97034.50;4218947;28;5694;-72
2022/06/07 07:38:06;;;;;;;;;;;;;;;23.57;61.31;97026.66;4218277;28;5679;-72
2022/06/07 07:40:10;;;;;;;;;;;;;;;23.56;60.91;97033.94;4219079;28;5745;-72
2022/06/07 07:42:13;;;;;;;;;;;;;;;23.55;60.82;97043.06;4219087;28;5667;-72
2022/06/07 07:44:17;;;;;;;;;;;;;;;23.58;60.84;97028.25;4218554;28;5734;-71
2022/06/07 07:46:23;;;;;;;;;;;;;;;23.62;60.73;97023.97;4218665;28;6352;-72
2022/06/07 07:48:26;;;;;;;;;;;;;;;23.62;60.53;97022.06;4217454;28;5682;-72
2022/06/07 07:50:29;;;;;;;;;;;;;;;23.65;60.41;97021.53;4218859;28;5719;-72
2022/06/07 07:52:32;;;;;;;;;;;;;;;23.66;60.78;97023.13;4218637;28;5667;-72
2022/06/07 07:54:38;;;;;;;;;;;;;;;23.67;60.51;97024.78;4218581;28;6348;-72
2022/06/07 07:56:41;;;;;;;;;;;;;;;23.65;60.48;97024.22;4218701;28;5766;-72
2022/06/07 07:58:45;;;;;;;;;;;;;;;23.70;60.39;97012.63;4218566;28;5753;-72
2022/06/07 08:00:49;;;;;;;;;;;;;;;23.63;60.61;97012.91;4218216;28;5762;-72
2022/06/07 08:02:52;;;;;;;;;;;;;;;23.57;60.38;97011.25;4218359;28;5696;-72
2022/06/07 08:04:55;;;;;;;;;;;;;;;23.50;60.66;97008.81;4218345;28;5668;-72
2022/06/07 08:06:58;;;;;;;;;;;;;;;23.47;60.43;97006.66;4218299;28;5671;-72
2022/06/07 08:09:03;;;;;;;;;;;;;;;23.52;59.91;97000.44;4218352;28;5779;-72
2022/06/07 08:11:08;;;;;;;;;;;;;;;23.63;59.54;97007.50;4217314;28;5777;-72
2022/06/07 08:13:11;;;;;;;;;;;;;;;23.71;59.91;97004.25;4218296;28;5675;-72
2022/06/07 08:15:15;;;;;;;;;;;;;;;23.77;59.62;97015.84;4219261;28;5659;-72
2022/06/07 08:17:18;;;;;;;;;;;;;;;23.81;59.17;97017.75;4213804;28;5646;-72
2022/06/07 08:19:21;;;;;;;;;;;;;;;23.87;58.70;97006.91;4230142;27;5671;-72
2022/06/07 08:21:27;;;;;;;;;;;;;;;23.93;59.02;97017.44;4234979;27;5660;-72
2022/06/07 08:23:31;;;;;;;;;;;;;;;24.00;59.00;97009.06;4229998;28;5891;-72
2022/06/07 08:25:35;;;;;;;;;;;;;;;24.04;58.93;97012.84;4234798;27;5686;-72
2022/06/07 08:27:39;;;;;;;;;;;;;;;24.04;58.68;97008.25;4234862;27;6164;-72
2022/06/07 08:29:43;;;;;;;;;;;;;;;24.03;58.36;97003.94;4234653;27;5646;-72
2022/06/07 08:31:48;;;;;;;;;;;;;;;24.04;58.46;97010.13;4229988;28;5688;-71
2022/06/07 08:38:35;;;;;;;;;;;;;;;24.07;57.92;97013.09;4217764;28;5671;-72
2022/06/07 08:40:43;;;;;;;;;;;;;;;24.09;58.42;97016.31;4217581;28;5667;-72
2022/06/07 08:42:53;;;;;;;;;;;;;;;24.08;57.82;97020.09;4217625;28;5766;-71
2022/06/07 08:44:59;;;;;;;;;;;;;;;24.02;57.80;97007.72;4217474;28;5668;-71
2022/06/07 08:47:09;;;;;;;;;;;;;;;23.99;58.12;97004.75;4217511;28;5671;-72
2022/06/07 08:49:14;;;;;;;;;;;;;;;23.95;58.01;97004.47;4217139;28;5738;-72
2022/06/07 08:51:21;;;;;;;;;;;;;;;23.90;58.22;97019.88;4217855;28;5814;-72
2022/06/07 08:53:29;;;;;;;;;;;;;;;23.61;58.39;97015.06;4217994;28;5683;-71
2022/06/07 08:55:35;;;;;;;;;;;;;;;23.40;58.81;97016.91;4216537;28;5682;-71
2022/06/07 08:57:38;;;;;;;;;;;;;;;23.38;58.67;97005.59;4218066;28;5678;-71
2022/06/07 08:59:46;;;;;;;;;;;;;;;23.39;59.12;97015.28;4217615;28;5675;-71
2022/06/07 09:01:58;;;;;;;;;;;;;;;23.39;59.02;97012.59;4218022;28;5675;-71
2022/06/07 09:04:15;;;;;;;;;;;;;;;23.36;58.84;97015.03;4217743;28;5751;-71
2022/06/07 09:06:23;;;;;;;;;;;;;;;23.31;58.66;97009.63;4217860;28;5765;-71
2022/06/07 09:08:33;;;;;;;;;;;;;;;23.34;58.77;97009.09;4217551;28;5679;-71
2022/06/07 09:13:00;;;;;;;;;;;;;;;23.41;58.18;96998.84;4217594;28;5683;-71
2022/06/07 09:15:09;;;;;;;;;;;;;;;23.46;58.27;97002.34;4216956;28;5688;-71
2022/06/07 09:17:15;;;;;;;;;;;;;;;23.51;58.61;96993.44;4217357;28;5763;-71
2022/06/07 09:19:28;;;;;;;;;;;;;;;23.52;58.32;96989.66;4217634;28;5675;-71
2022/06/07 09:21:32;;;;;;;;;;;;;;;23.54;58.57;96988.31;4217705;28;5818;-71
2022/06/07 09:23:40;;;;;;;;;;;;;;;23.53;58.10;96989.38;4217455;28;5672;-71
2022/06/07 09:25:48;;;;;;;;;;;;;;;23.53;57.95;96989.38;4217451;28;5676;-71
2022/06/07 09:27:51;;;;;;;;;;;;;;;23.49;58.22;96990.22;4217579;28;5863;-72
2022/06/07 09:29:58;;;;;;;;;;;;;;;23.43;58.08;96983.19;4215937;28;5757;-71
2022/06/07 09:32:02;;;;;;;;;;;;;;;23.38;58.43;96984.00;4217630;28;5711;-71
2022/06/07 09:34:09;;;;;;;;;;;;;;;23.41;57.75;96978.06;4217600;28;5675;-71
2022/06/07 09:36:20;;;;;;;;;;;;;;;23.41;57.81;96979.94;4217486;28;5671;-71
2022/06/07 09:38:31;;;;;;;;;;;;;;;23.44;57.62;96972.16;4217364;28;5659;-71
2022/06/07 09:40:37;;;;;;;;;;;;;;;23.48;57.55;96978.59;4217363;28;5660;-71
2022/06/07 09:42:40;;;;;;;;;;;;;;;23.51;57.67;96978.06;4216876;28;5767;-71
2022/06/07 09:44:56;;;;;;;;;;;;;;;23.60;56.96;96980.25;4217086;28;5679;-71
2022/06/07 09:47:05;;;;;;;;;;;;;;;23.68;56.99;96977.00;4217400;28;5667;-71
2022/06/07 09:49:25;;;;;;;;;;;;;;;23.75;56.75;96972.13;4217331;28;5671;-71
2022/06/07 09:51:37;;;;;;;;;;;;;;;23.81;56.97;96974.56;4217501;28;5777;-71
2022/06/07 09:53:44;;;;;;;;;;;;;;;23.89;56.36;96973.16;4217581;28;5683;-71
2022/06/07 09:55:55;;;;;;;;;;;;;;;23.92;56.30;96969.13;4216077;28;5675;-71
2022/06/07 09:58:16;;;;;;;;;;;;;;;23.95;56.34;96971.28;4217743;28;5667;-71
2022/06/07 10:00:23;;;;;;;;;;;;;;;24.01;56.37;96971.00;4218075;28;5754;-71
2022/06/07 10:02:53;;;;;;;;;;;;;;;23.99;56.17;96964.22;4220514;28;5679;-71
2022/06/07 10:05:08;;;;;;;;;;;;;;;24.02;55.89;96961.00;4219169;28;5754;-71
2022/06/07 10:07:17;;;;;;;;;;;;;;;24.04;55.85;96959.63;4220512;28;5671;-71
2022/06/07 10:09:32;;;;;;;;;;;;;;;24.12;55.79;96944.75;4220434;28;5706;-71
2022/06/07 10:11:41;;;;;;;;;;;;;;;24.15;55.49;96946.91;4220621;28;5671;-71
2022/06/07 10:13:57;;;;;;;;;;;;;;;24.14;54.73;96945.31;4220277;28;5671;-72
2022/06/07 10:16:05;;;;;;;;;;;;;;;24.10;54.91;96947.72;4218069;28;5695;-72
2022/06/07 10:18:27;;;;;;;;;;;;;;;24.12;54.73;96947.44;4220232;28;5667;-72
2022/06/07 10:20:44;;;;;;;;;;;;;;;24.13;54.12;96946.38;4220214;28;5719;-72
2022/06/07 10:23:05;;;;;;;;;;;;;;;24.18;54.04;96930.16;4218756;28;5776;-72
2022/06/07 10:25:16;;;;;;;;;;;;;;;24.22;53.87;96938.50;4219825;28;6372;-72
2022/06/07 10:27:22;;;;;;;;;;;;;;;24.23;53.74;96932.81;4219851;28;5667;-71
2022/06/07 10:29:55;;;;;;;;;;;;;;;24.23;53.34;96932.81;4218427;28;5690;-71
2022/06/07 10:32:27;;;;;;;;;;;;;;;24.29;53.70;96933.63;4220038;28;5845;-72
2022/06/07 10:34:37;;;;;;;;;;;;;;;24.28;53.12;96922.00;4220168;28;5683;-72
2022/06/07 10:36:51;;;;;;;;;;;;;;;24.22;53.38;96923.09;4220015;28;5690;-72
2022/06/07 10:39:08;;;;;;;;;;;;;;;24.19;53.03;96920.94;4220092;28;5759;-72
2022/06/07 10:41:22;;;;;;;;;;;;;;;24.18;53.41;96916.63;4219932;28;5675;-72
2022/06/07 10:43:28;;;;;;;;;;;;;;;24.18;53.26;96918.53;4219694;28;5786;-71
2022/06/07 10:45:36;;;;;;;;;;;;;;;24.17;52.93;96912.31;4210560;28;5704;-72
2022/06/07 10:47:48;;;;;;;;;;;;;;;24.20;53.00;96911.75;4219374;28;5663;-72
2022/06/07 10:49:58;;;;;;;;;;;;;;;24.20;52.86;96900.97;4219225;28;5668;-72
2022/06/07 10:52:24;;;;;;;;;;;;;;;24.21;52.93;96897.16;4219750;28;5675;-72
2022/06/07 10:54:32;;;;;;;;;;;;;;;24.19;52.31;96912.84;4219692;28;5679;-71
2022/06/07 10:56:41;;;;;;;;;;;;;;;24.16;52.37;96908.00;4202858;28;5780;-72
2022/06/07 10:58:48;;;;;;;;;;;;;;;24.13;52.36;96907.78;4203434;28;5662;-72
2022/06/07 11:00:56;;;;;;;;;;;;;;;24.13;52.21;96899.66;4215551;28;5692;-72
2022/06/07 11:03:08;;;;;;;;;;;;;;;24.13;52.27;96897.78;4209107;28;5677;-72
2022/06/07 11:10:07;;;;;;;;;;;;;;;24.06;51.28;96900.75;4219578;28;5754;-72
2022/06/07 11:12:12;;;;;;;;;;;;;;;24.06;51.08;96905.34;4218437;28;5683;-72
2022/06/07 11:14:33;;;;;;;;;;;;;;;24.05;50.84;96895.63;4211188;28;5835;-72
2022/06/07 11:16:45;;;;;;;;;;;;;;;24.06;50.71;96899.94;4185767;28;5734;-72
2022/06/07 11:18:48;;;;;;;;;;;;;;;24.08;50.63;96895.88;4202499;28;5692;-72
2022/06/07 11:21:13;;;;;;;;;;;;;;;24.14;50.68;96899.38;4202583;28;5800;-72
2022/06/07 11:23:20;;;;;;;;;;;;;;;24.18;50.60;96886.94;4201983;28;5688;-72
2022/06/07 11:25:34;;;;;;;;;;;;;;;24.17;50.31;96887.22;4203180;28;5808;-72
2022/06/07 11:27:37;;;;;;;;;;;;;;;24.17;50.50;96882.63;4209710;28;5885;-72
2022/06/07 11:29:43;;;;;;;;;;;;;;;24.21;50.34;96877.44;4218928;28;5849;-72
2022/06/07 11:31:46;;;;;;;;;;;;;;;24.23;50.15;96875.28;4218511;28;5671;-72
2022/06/07 11:34:04;;;;;;;;;;;;;;;24.22;49.80;96874.47;4219076;28;5667;-72
2022/06/07 11:36:27;;;;;;;;;;;;;;;24.25;49.88;96873.94;4205725;28;5671;-72
2022/06/07 11:38:33;;;;;;;;;;;;;;;24.31;49.58;96866.63;4202264;28;5681;-72
2022/06/07 11:40:36;;;;;;;;;;;;;;;24.34;49.87;96866.88;4201936;28;5696;-72
2022/06/07 11:42:40;;;;;;;;;;;;;;;24.37;50.05;96863.63;4219568;28;5653;-72
2022/06/07 11:45:16;;;;;;;;;;;;;;;24.38;49.99;96867.94;4235254;27;5649;-72
2022/06/07 11:47:36;;;;;;;;;;;;;;;24.37;49.66;96855.53;4233281;28;5646;-72
2022/06/07 11:49:41;;;;;;;;;;;;;;;24.39;49.68;96857.94;4235676;28;5654;-72
2022/06/07 11:51:53;;;;;;;;;;;;;;;24.38;49.84;96851.72;4235754;27;5725;-73
2022/06/07 11:54:03;;;;;;;;;;;;;;;24.37;49.94;96847.41;4216055;28;5758;-71
2022/06/07 11:56:25;;;;;;;;;;;;;;;24.38;49.41;96845.53;4218390;28;5684;-71
2022/06/07 11:58:51;;;;;;;;;;;;;;;24.38;49.67;96835.53;4202543;28;5704;-66
2022/06/07 12:00:54;;;;;;;;;;;;;;;24.38;49.57;96837.41;4214103;28;5828;-66
2022/06/07 12:03:34;;;;;;;;;;;;;;;24.42;49.69;96834.94;4202204;28;5689;-66
2022/06/07 12:05:41;;;;;;;;;;;;;;;24.43;49.68;96831.97;4205583;28;5679;-67
2022/06/07 12:07:51;;;;;;;;;;;;;;;24.46;49.34;96827.88;4209675;28;5682;-66
2022/06/07 12:09:56;;;;;;;;;;;;;;;24.50;49.41;96831.66;4202144;28;5737;-66
2022/06/07 12:11:59;;;;;;;;;;;;;;;24.52;49.36;96826.78;4212523;28;5671;-66
2022/06/07 12:16:44;;;;;;;;;;;;;;;24.55;48.93;96829.72;4174363;28;5729;-67
2022/06/07 12:18:52;;;;;;;;;;;;;;;24.57;49.28;96822.13;4182681;28;6556;-67
2022/06/07 12:20:59;;;;;;;;;;;;;;;24.60;48.75;96827.00;4182741;28;5800;-66
2022/06/07 12:23:24;;;;;;;;;;;;;;;24.62;48.79;96821.31;4182252;28;6431;-66
2022/06/07 12:25:35;;;;;;;;;;;;;;;24.64;48.92;96819.13;4166141;28;5770;-66
2022/06/07 12:27:46;;;;;;;;;;;;;;;24.68;48.91;96822.88;4181855;28;5749;-64
2022/06/07 12:29:50;;;;;;;;;;;;;;;24.68;48.59;96818.25;4182323;28;5892;-64
2022/06/07 12:31:56;;;;;;;;;;;;;;;24.71;48.36;96816.09;4182433;28;5824;-63
2022/06/07 12:34:03;;;;;;;;;;;;;;;24.73;48.46;96813.91;4165570;28;5837;-63
2022/06/07 12:36:15;;;;;;;;;;;;;;;24.77;48.12;96804.16;4166182;28;5825;-63
2022/06/07 12:38:27;;;;;;;;;;;;;;;24.78;48.17;96805.75;4166051;28;5750;-63
2022/06/07 12:40:35;;;;;;;;;;;;;;;24.79;48.07;96802.75;4165864;28;5751;-70
2022/06/07 12:42:47;;;;;;;;;;;;;;;24.81;47.80;96803.31;4181177;28;5756;-73
2022/06/07 12:44:56;;;;;;;;;;;;;;;24.84;47.82;96796.53;4178553;28;5880;-69
2022/06/07 12:47:02;;;;;;;;;;;;;;;24.87;47.87;96804.88;4181856;28;6692;-68
2022/06/07 12:49:19;;;;;;;;;;;;;;;24.87;47.74;96804.88;4169116;28;6434;-73
2022/06/07 12:51:30;;;;;;;;;;;;;;;24.90;47.34;96798.06;4182557;28;5729;-70
2022/06/07 12:53:36;;;;;;;;;;;;;;;24.93;47.34;96801.03;4185548;28;5944;-72
2022/06/07 12:55:42;;;;;;;;;;;;;;;24.93;47.56;96797.53;4212805;28;5802;-67
2022/06/07 12:57:47;;;;;;;;;;;;;;;24.95;47.28;96801.56;4206670;28;5691;-69
2022/06/07 12:59:55;;;;;;;;;;;;;;;24.98;47.46;96797.47;4217297;28;5834;-68
2022/06/07 13:01:58;;;;;;;;;;;;;;;25.00;47.28;96802.59;4205973;28;5779;-72
2022/06/07 13:04:07;;;;;;;;;;;;;;;24.99;47.35;96799.06;4200162;28;5772;-71
2022/06/07 13:06:18;;;;;;;;;;;;;;;24.97;47.56;96799.38;4208444;28;5652;-72
2022/06/07 13:08:24;;;;;;;;;;;;;;;24.96;47.10;96803.16;4215923;28;5679;-67
2022/06/07 13:10:31;;;;;;;;;;;;;;;24.93;47.09;96801.03;4211554;28;5913;-68
2022/06/07 13:12:36;;;;;;;;;;;;;;;24.96;47.18;96805.88;4217369;28;5756;-68
2022/06/07 13:14:42;;;;;;;;;;;;;;;24.97;46.80;96795.84;4199885;28;5791;-68
2022/06/07 13:16:47;;;;;;;;;;;;;;;25.02;46.73;96795.03;4232357;28;5760;-68
2022/06/07 13:18:58;;;;;;;;;;;;;;;25.02;46.71;96795.81;4210416;28;5686;-68
2022/06/07 13:21:15;;;;;;;;;;;;;;;25.02;46.88;96786.91;4217474;28;5708;-68
2022/06/07 13:23:25;;;;;;;;;;;;;;;25.06;46.90;96793.38;4213731;28;5894;-68
2022/06/07 13:25:32;;;;;;;;;;;;;;;25.09;46.51;96790.91;4232617;28;5662;-68
2022/06/07 13:27:44;;;;;;;;;;;;;;;25.11;46.53;96787.91;4225088;28;5754;-74
2022/06/07 13:29:46;;;;;;;;;;;;;;;25.13;46.46;96791.94;4212384;28;6124;-74
2022/06/07 13:31:56;;;;;;;;;;;;;;;25.15;46.65;96788.97;4200207;28;5689;-71
2022/06/07 13:34:05;;;;;;;;;;;;;;;25.15;46.35;96789.78;4209605;28;5760;-70
2022/06/07 13:36:39;;;;;;;;;;;;;;;25.17;46.59;96787.56;4236942;27;5649;-77
2022/06/07 13:38:52;;;;;;;;;;;;;;;25.15;46.52;96784.34;4209315;28;5690;-81
2022/06/07 13:41:18;;;;;;;;;;;;;;;25.18;46.19;96782.97;4222457;28;5773;-78
2022/06/07 13:43:23;;;;;;;;;;;;;;;25.20;46.29;96780.78;4212687;28;5159;-81
2022/06/07 13:45:29;;;;;;;;;;;;;;;25.20;46.10;96780.78;4205361;28;5812;-78
2022/06/07 13:47:36;;;;;;;;;;;;;;;25.19;46.11;96777.28;4217480;28;5874;-74
2022/06/07 13:54:50;;;;;;;;;;;;;;;25.15;45.79;96770.03;4203401;28;5753;-70
2022/06/07 13:56:54;;;;;;;;;;;;;;;25.14;45.72;96771.94;4203362;28;5696;-65
2022/06/07 13:58:59;;;;;;;;;;;;;;;25.16;46.02;96768.94;4204139;28;5756;-74
2022/06/07 14:01:13;;;;;;;;;;;;;;;25.16;45.96;96768.94;4213416;28;5671;-81
2022/06/07 14:03:30;;;;;;;;;;;;;;;25.17;45.92;96759.72;4222305;28;5683;-80
2022/06/07 14:05:34;;;;;;;;;;;;;;;25.19;45.76;96762.94;4207926;28;5712;-73
2022/06/07 14:07:37;;;;;;;;;;;;;;;25.19;45.51;96757.53;4203315;28;5743;-74
2022/06/07 14:09:42;;;;;;;;;;;;;;;25.17;45.40;96765.94;4206563;28;5815;-68
2022/06/07 14:11:46;;;;;;;;;;;;;;;25.17;45.40;96760.53;4208874;28;5754;-78
2022/06/07 14:13:51;;;;;;;;;;;;;;;25.19;45.73;96762.94;4219819;28;5667;-68
2022/06/07 14:15:54;;;;;;;;;;;;;;;25.20;45.51;96759.13;4217149;28;5671;-79
2022/06/07 14:17:58;;;;;;;;;;;;;;;25.19;45.32;96755.63;4218068;28;5720;-76
2022/06/07 14:20:01;;;;;;;;;;;;;;;25.17;45.38;96760.53;4209265;28;5848;-75
2022/06/07 14:22:15;;;;;;;;;;;;;;;25.19;45.03;96755.63;4216172;28;5238;-73
2022/06/07 14:24:21;;;;;;;;;;;;;;;25.21;45.36;96760.75;4207481;28;5774;-68
2022/06/07 14:26:24;;;;;;;;;;;;;;;25.21;45.16;96749.94;4207311;28;5705;-78
2022/06/07 14:28:27;;;;;;;;;;;;;;;25.21;44.95;96745.31;4213129;28;5742;-77
2022/06/07 14:30:35;;;;;;;;;;;;;;;25.23;45.09;96761.25;4219717;28;5730;-68
2022/06/07 14:32:42;;;;;;;;;;;;;;;25.21;44.75;96755.34;4212392;28;5849;-77
2022/06/07 14:34:46;;;;;;;;;;;;;;;25.21;45.04;96752.63;4230593;28;5646;-79
2022/06/07 14:36:51;;;;;;;;;;;;;;;25.23;44.70;96758.56;4223824;27;5778;-68
2022/06/07 14:38:54;;;;;;;;;;;;;;;25.25;44.94;96759.06;4219524;28;5753;-69
2022/06/07 14:40:57;;;;;;;;;;;;;;;25.25;44.76;96754.47;4209545;28;5685;-68
2022/06/07 14:43:08;;;;;;;;;;;;;;;25.27;44.61;96753.41;4202707;28;5685;-68
2022/06/07 14:45:12;;;;;;;;;;;;;;;25.26;44.57;96768.81;4208354;28;5851;-67
2022/06/07 14:47:20;;;;;;;;;;;;;;;25.25;44.70;96753.66;4211865;28;5778;-64
2022/06/07 14:49:29;;;;;;;;;;;;;;;25.26;44.47;96752.59;4216426;28;5843;-70
2022/06/07 14:51:37;;;;;;;;;;;;;;;25.27;44.49;96764.22;4215692;28;5663;-70
2022/06/07 14:53:40;;;;;;;;;;;;;;;25.25;44.05;96757.16;4204823;28;5807;-69
2022/06/07 14:55:43;;;;;;;;;;;;;;;25.24;43.97;96752.84;4211725;28;6409;-69
2022/06/07 14:57:47;;;;;;;;;;;;;;;25.24;44.06;96749.34;4208588;28;5794;-69
2022/06/07 14:59:52;;;;;;;;;;;;;;;25.26;43.75;96752.59;4210958;28;5757;-69
2022/06/07 15:01:58;;;;;;;;;;;;;;;25.27;43.98;96751.50;4210369;28;5799;-69
2022/06/07 15:04:03;;;;;;;;;;;;;;;25.28;43.74;96755.81;4208729;28;5777;-69
2022/06/07 15:06:06;;;;;;;;;;;;;;;25.27;43.74;96756.91;4215194;28;5802;-69
2022/06/07 15:08:15;;;;;;;;;;;;;;;25.28;43.68;96763.94;4210025;28;7788;-69
2022/06/07 15:10:23;;;;;;;;;;;;;;;25.29;43.45;96762.03;4211398;28;6503;-73
2022/06/07 15:12:27;;;;;;;;;;;;;;;25.28;43.39;96758.50;4213708;28;5713;-76
2022/06/07 15:14:30;;;;;;;;;;;;;;;25.28;43.50;96755.81;4210318;28;5791;-72
2022/06/07 15:16:36;;;;;;;;;;;;;;;25.27;43.47;96754.19;4235891;27;5757;-67
2022/06/07 15:18:41;;;;;;;;;;;;;;;25.25;43.51;96753.66;4219748;28;5874;-72
2022/06/07 15:20:47;;;;;;;;;;;;;;;25.25;43.34;96753.66;4213175;28;5120;-70
2022/06/07 15:22:51;;;;;;;;;;;;;;;25.27;43.15;96751.50;4217299;28;5769;-65
2022/06/07 15:24:54;;;;;;;;;;;;;;;25.29;43.13;96751.19;4213316;28;5791;-71
2022/06/07 15:26:57;;;;;;;;;;;;;;;25.29;43.23;96748.50;4211540;28;5778;-67
2022/06/07 15:29:00;;;;;;;;;;;;;;;25.30;43.12;96756.31;4228089;28;5780;-62
2022/06/07 15:31:03;;;;;;;;;;;;;;;25.33;43.62;96761.16;4217518;28;5830;-66
2022/06/07 15:33:08;;;;;;;;;;;;;;;25.32;43.44;96759.53;4211116;28;5490;-65
2022/06/07 15:35:14;;;;;;;;;;;;;;;25.31;43.21;96757.94;4217467;28;5766;-68
2022/06/07 15:37:20;;;;;;;;;;;;;;;25.31;43.36;96763.34;4215123;27;5782;-73
2022/06/07 15:39:23;;;;;;;;;;;;;;;25.33;42.83;96757.63;4226307;28;5768;-78
2022/06/07 15:44:08;;;;;;;;;;;;;;;25.29;42.74;96760.13;4205007;28;5792;-67
2022/06/07 15:46:11;;;;;;;;;;;;;;;25.29;42.20;96756.63;4207304;28;5679;-65
2022/06/07 15:48:17;;;;;;;;;;;;;;;25.27;41.91;96758.81;4216823;28;5880;-66
2022/06/07 15:50:20;;;;;;;;;;;;;;;25.25;41.80;96761.78;4224996;28;5785;-69
2022/06/07 15:52:24;;;;;;;;;;;;;;;25.24;41.53;96755.56;4216384;27;5778;-68
2022/06/07 15:54:27;;;;;;;;;;;;;;;25.20;41.55;96759.13;4215813;28;5766;-70
2022/06/07 15:56:30;;;;;;;;;;;;;;;25.18;41.32;96762.13;4218628;27;5814;-69
2022/06/07 16:00:54;;;;;;;;;;;;;;;25.16;41.15;96769.75;4217116;28;5756;-75
2022/06/07 16:02:58;;;;;;;;;;;;;;;25.12;40.65;96770.56;4226005;27;5826;-71
2022/06/07 16:05:00;;;;;;;;;;;;;;;25.04;40.38;96772.03;4218591;28;5756;-74
2022/06/07 16:07:04;;;;;;;;;;;;;;;25.04;40.31;96777.44;4227830;28;6393;-71
2022/06/07 16:09:11;;;;;;;;;;;;;;;25.04;40.28;96779.34;4222159;27;5762;-71
2022/06/07 16:11:14;;;;;;;;;;;;;;;25.02;40.22;96773.38;4210125;28;5746;-73
2022/06/07 16:13:20;;;;;;;;;;;;;;;25.03;40.10;96775.00;4212805;28;5807;-72
2022/06/07 16:15:24;;;;;;;;;;;;;;;25.01;39.86;96777.16;4212322;28;5916;-74
2022/06/07 16:17:27;;;;;;;;;;;;;;;24.95;39.84;96785.31;4216897;28;5798;-69
2022/06/07 16:19:30;;;;;;;;;;;;;;;24.95;39.30;96782.63;4217493;28;5842;-73
2022/06/07 16:21:33;;;;;;;;;;;;;;;24.89;39.54;96782.94;4218373;28;5932;-73
2022/06/07 16:23:36;;;;;;;;;;;;;;;24.85;39.54;96790.03;4229857;28;5745;-66
2022/06/07 16:25:41;;;;;;;;;;;;;;;24.79;39.01;96786.53;4215740;28;6376;-66
2022/06/07 16:34:59;;;;;;;;;;;;;;;24.71;38.78;96794.47;4161447;28;5861;-65
2022/06/07 16:37:04;;;;;;;;;;;;;;;24.73;39.14;96798.50;4162072;28;6027;-66
2022/06/07 16:39:09;;;;;;;;;;;;;;;24.72;38.74;96799.59;4165655;28;5841;-65
2022/06/07 16:41:14;;;;;;;;;;;;;;;24.75;38.68;96801.72;4182159;28;7780;-66
2022/06/07 16:45:38;;;;;;;;;;;;;;;24.75;38.29;96809.84;4161667;28;5766;-67
2022/06/07 16:47:41;;;;;;;;;;;;;;;24.76;38.59;96814.16;4163583;28;5933;-68
2022/06/07 16:49:44;;;;;;;;;;;;;;;24.75;38.13;96817.94;4170614;28;5866;-67
2022/06/07 16:51:48;;;;;;;;;;;;;;;24.74;37.95;96816.34;4165593;28;5766;-67
2022/06/07 16:53:51;;;;;;;;;;;;;;;24.75;37.85;96819.84;4152367;28;5807;-67
2022/06/07 16:55:55;;;;;;;;;;;;;;;24.74;37.81;96827.16;4158158;28;5787;-66
2022/06/07 16:57:59;;;;;;;;;;;;;;;24.75;37.68;96825.25;4150874;28;5791;-66
2022/06/07 17:00:02;;;;;;;;;;;;;;;24.73;37.39;96822.84;4153644;28;5800;-66
2022/06/07 17:02:06;;;;;;;;;;;;;;;24.71;37.46;96832.31;4161290;28;5893;-65
2022/06/07 17:04:09;;;;;;;;;;;;;;;24.72;37.57;96828.53;4165828;28;5746;-65
2022/06/07 17:06:17;;;;;;;;;;;;;;;24.74;37.20;96829.06;4157997;28;5772;-66
2022/06/07 17:08:24;;;;;;;;;;;;;;;24.76;37.34;96838.47;4218882;28;6400;-65
2022/06/07 17:10:27;;;;;;;;;;;;;;;24.75;37.12;96827.97;4212753;28;5678;-65
2022/06/07 17:12:30;;;;;;;;;;;;;;;24.71;36.86;96838.53;4224268;28;5661;-65